MMMX/MEX METAR and TAF weather

Enter ICAO airport designator
Station Type Date Time Source
MMMX METAR 2019/02/17 15:50 UTC NOAA

MMMX 171550Z 00000KT 12SM SKC 22/04 A3030 NOSIG


Station Type Date Time Source
MMMX Decoded METAR 2019/02/17 15:50 UTC NOAA

Mexico City / Licenci, Mexico (MMMX) 19-26N 099-06W
Feb 17, 2019 - 10:50 AM EST / 2019.02.17 1550 UTC
Wind: Calm:0
Visibility: 12 mile(s):0
Sky conditions: clear
Temperature: 71 F (22 C)
Dew Point: 39 F (4 C)
Relative Humidity: 30%
Pressure (altimeter): 30.3 in. Hg (1026 hPa)
ob: MMMX 171550Z 00000KT 12SM SKC 22/04 A3030 NOSIG
cycle: 16

Station Type Date Time Source
MMMX TAF 2019/02/17 12:58 UTC NOAA

TAF MMMX 170958Z 1712/1818 00000KT P6SM SKC TX28/1721Z TN15/1712Z
FM171800 22010KT P6SM SCT025
FM180600 12005KT P6SM SKC
BECMG 1810/1812 00000KT


Example: see airport list